createdAt,value
2018-12-19T00:01:33.263Z,9.90
2018-12-19T00:04:01.954Z,10.00
2018-12-19T00:06:30.528Z,9.90
2018-12-19T00:09:03.112Z,9.80
2018-12-19T00:11:30.034Z,9.80
2018-12-19T00:13:58.830Z,9.90
2018-12-19T00:16:27.513Z,9.90
2018-12-19T00:18:56.059Z,9.90
2018-12-19T00:21:24.781Z,9.90
2018-12-19T00:23:53.505Z,9.80
2018-12-19T00:26:22.250Z,9.60
2018-12-19T00:28:50.886Z,9.60
2018-12-19T00:31:19.523Z,9.70
2018-12-19T00:33:48.072Z,9.70
2018-12-19T00:36:16.794Z,9.60
2018-12-19T00:38:45.555Z,9.50
2018-12-19T00:41:14.223Z,9.50
2018-12-19T00:43:43.160Z,9.60
2018-12-19T00:46:11.724Z,9.50
2018-12-19T00:48:40.489Z,9.50
2018-12-19T00:51:09.258Z,9.50
2018-12-19T00:53:37.897Z,9.50
2018-12-19T00:56:07.059Z,9.50
2018-12-19T00:58:35.988Z,9.30
2018-12-19T01:01:04.696Z,9.40
2018-12-19T01:03:33.328Z,9.40
2018-12-19T01:06:02.067Z,9.40
2018-12-19T01:08:30.731Z,9.50
2018-12-19T01:10:59.261Z,9.50
2018-12-19T01:13:28.154Z,9.50
2018-12-19T01:15:56.840Z,9.50
2018-12-19T01:18:25.836Z,9.40
2018-12-19T01:20:54.508Z,9.30
2018-12-19T01:23:23.196Z,9.40
2018-12-19T01:25:52.055Z,9.50
2018-12-19T01:28:20.644Z,9.50
2018-12-19T01:30:49.272Z,9.50
2018-12-19T01:33:17.834Z,9.40
2018-12-19T01:35:46.572Z,9.40
2018-12-19T01:38:15.233Z,9.50
2018-12-19T01:40:43.777Z,9.70
2018-12-19T01:43:12.376Z,9.50
2018-12-19T01:45:41.032Z,9.30
2018-12-19T01:48:09.970Z,9.20
2018-12-19T01:50:38.820Z,9.20
2018-12-19T01:53:07.638Z,9.20
2018-12-19T01:55:36.466Z,9.20
2018-12-19T01:58:05.493Z,9.20
2018-12-19T02:00:34.736Z,9.30
2018-12-19T02:03:03.552Z,9.40
2018-12-19T02:05:32.188Z,9.40
2018-12-19T02:08:01.022Z,9.40
2018-12-19T02:10:29.852Z,9.40
2018-12-19T02:12:58.596Z,9.30
2018-12-19T02:15:27.313Z,9.30
2018-12-19T02:17:55.883Z,9.30
2018-12-19T02:20:24.709Z,9.30
2018-12-19T02:22:53.290Z,9.20
2018-12-19T02:25:21.926Z,9.20
2018-12-19T02:27:51.059Z,9.20
2018-12-19T02:30:19.800Z,9.20
2018-12-19T02:32:48.554Z,9.20
2018-12-19T02:35:17.302Z,9.30
2018-12-19T02:37:45.909Z,9.30
2018-12-19T02:40:14.460Z,9.20
2018-12-19T02:42:43.023Z,9.20
2018-12-19T02:45:12.124Z,9.20
2018-12-19T02:47:40.955Z,9.20
2018-12-19T02:50:09.653Z,9.10
2018-12-19T02:52:38.323Z,9.30
2018-12-19T02:55:07.249Z,9.30
2018-12-19T02:57:35.862Z,9.30
2018-12-19T03:00:06.769Z,9.20
2018-12-19T03:02:35.519Z,9.20
2018-12-19T03:05:05.126Z,9.20
2018-12-19T03:07:33.971Z,9.30
2018-12-19T03:10:02.679Z,9.20
2018-12-19T03:12:31.404Z,9.30
2018-12-19T03:15:00.270Z,9.20
2018-12-19T03:17:28.857Z,9.30
2018-12-19T03:19:57.542Z,9.30
2018-12-19T03:22:26.417Z,9.10
2018-12-19T03:24:55.206Z,9.10
2018-12-19T03:27:24.039Z,9.20
2018-12-19T03:29:52.689Z,9.30
2018-12-19T03:32:21.395Z,9.20
2018-12-19T03:34:50.110Z,9.20
2018-12-19T03:37:18.701Z,9.20
2018-12-19T03:39:50.217Z,9.10
2018-12-19T03:42:17.931Z,9.10
2018-12-19T03:44:46.516Z,9.10
2018-12-19T03:47:15.259Z,9.10
2018-12-19T03:49:44.178Z,9.20
2018-12-19T03:52:12.913Z,9.10
2018-12-19T03:54:41.658Z,9.10
2018-12-19T03:57:11.078Z,9.10
2018-12-19T03:59:41.202Z,9.10
2018-12-19T04:02:10.438Z,9.20
2018-12-19T04:04:39.269Z,9.10
2018-12-19T04:07:07.983Z,9.10
2018-12-19T04:09:36.936Z,9.10
2018-12-19T04:12:05.963Z,9.10
2018-12-19T04:14:34.693Z,9.00
2018-12-19T04:17:03.533Z,8.80
2018-12-19T04:19:32.227Z,8.60
2018-12-19T04:22:01.123Z,8.60
2018-12-19T04:24:29.596Z,8.70
2018-12-19T04:26:58.071Z,8.70
2018-12-19T04:29:27.394Z,8.60
2018-12-19T04:31:56.289Z,8.70
2018-12-19T04:34:25.059Z,8.70
2018-12-19T04:36:54.478Z,8.60
2018-12-19T04:39:23.312Z,8.50
2018-12-19T04:41:51.947Z,8.50
2018-12-19T04:44:20.741Z,8.50
2018-12-19T04:46:49.288Z,8.50
2018-12-19T04:49:17.931Z,8.70
2018-12-19T04:51:46.699Z,8.70
2018-12-19T04:54:15.523Z,8.60
2018-12-19T04:56:44.102Z,8.70
2018-12-19T04:59:12.668Z,8.60
2018-12-19T05:01:41.234Z,8.60
2018-12-19T05:04:09.864Z,8.50
2018-12-19T05:06:38.502Z,8.50
2018-12-19T05:09:08.087Z,8.50
2018-12-19T05:11:36.854Z,8.60
2018-12-19T05:14:05.522Z,8.50
2018-12-19T05:16:34.220Z,8.40
2018-12-19T05:19:02.856Z,8.40
2018-12-19T05:21:31.684Z,8.30
2018-12-19T05:24:00.417Z,8.10
2018-12-19T05:26:29.021Z,7.90
2018-12-19T05:28:57.793Z,8.00
2018-12-19T05:31:26.343Z,8.00
2018-12-19T05:33:55.334Z,8.00
2018-12-19T05:36:23.892Z,8.00
2018-12-19T05:38:52.660Z,8.00
2018-12-19T05:41:21.362Z,8.10
2018-12-19T05:43:49.906Z,8.10
2018-12-19T05:46:18.501Z,8.00
2018-12-19T05:48:47.266Z,7.80
2018-12-19T05:51:16.295Z,7.70
2018-12-19T05:53:45.024Z,7.80
2018-12-19T05:56:17.106Z,7.80
2018-12-19T05:58:45.663Z,7.90
2018-12-19T06:01:14.302Z,7.90
2018-12-19T06:03:43.112Z,7.90
2018-12-19T06:06:11.843Z,7.90
2018-12-19T06:08:40.606Z,8.00
2018-12-19T06:11:09.600Z,8.00
2018-12-19T06:13:38.665Z,7.80
2018-12-19T06:16:07.369Z,7.80
2018-12-19T06:18:36.791Z,7.90
2018-12-19T06:21:05.538Z,7.70
2018-12-19T06:23:34.260Z,7.60
2018-12-19T06:26:03.148Z,7.60
2018-12-19T06:28:31.644Z,7.80
2018-12-19T06:31:00.285Z,7.90
2018-12-19T06:33:28.760Z,7.90
2018-12-19T06:35:57.631Z,7.90
2018-12-19T06:38:26.660Z,7.90
2018-12-19T06:40:55.321Z,7.80
2018-12-19T06:43:24.129Z,7.80
2018-12-19T06:45:52.641Z,7.80
2018-12-19T06:48:21.099Z,7.80
2018-12-19T06:50:49.715Z,7.90
2018-12-19T06:53:18.392Z,8.00
2018-12-19T06:55:46.894Z,7.90
2018-12-19T06:58:15.398Z,7.80
2018-12-19T07:00:43.987Z,7.80
2018-12-19T07:03:12.691Z,8.00
2018-12-19T07:05:41.373Z,8.00
2018-12-19T07:08:10.089Z,8.00
2018-12-19T07:10:39.321Z,8.00
2018-12-19T07:13:08.001Z,8.00
2018-12-19T07:15:36.981Z,7.90
2018-12-19T07:18:05.735Z,7.90
2018-12-19T07:20:34.450Z,8.00
2018-12-19T07:23:03.197Z,8.10
2018-12-19T07:25:31.915Z,8.00
2018-12-19T07:28:00.453Z,8.00
2018-12-19T07:30:29.217Z,7.90
2018-12-19T07:32:57.991Z,7.90
2018-12-19T07:35:26.581Z,7.90
2018-12-19T07:37:55.484Z,8.20
2018-12-19T07:40:24.240Z,8.30
2018-12-19T07:42:52.957Z,8.20
2018-12-19T07:45:21.699Z,8.10
2018-12-19T07:47:50.742Z,7.90
2018-12-19T07:50:19.359Z,7.90
2018-12-19T07:52:48.404Z,7.90
2018-12-19T07:55:16.981Z,7.90
2018-12-19T07:57:45.712Z,8.00
2018-12-19T08:00:14.579Z,8.10
2018-12-19T08:02:43.147Z,8.20
2018-12-19T08:05:11.849Z,8.20
2018-12-19T08:07:40.406Z,8.20
2018-12-19T08:10:09.316Z,8.20
2018-12-19T08:12:38.150Z,8.30
2018-12-19T08:15:06.980Z,8.30
2018-12-19T08:17:35.498Z,8.40
2018-12-19T08:20:05.037Z,8.40
2018-12-19T08:22:33.560Z,8.50
2018-12-19T08:25:02.313Z,8.60
2018-12-19T08:27:30.946Z,8.70
2018-12-19T08:29:59.776Z,8.80
2018-12-19T08:32:28.608Z,8.80
2018-12-19T08:34:57.171Z,8.80
2018-12-19T08:37:25.787Z,8.80
2018-12-19T08:39:54.479Z,8.70
2018-12-19T08:42:23.133Z,8.90
2018-12-19T08:44:51.768Z,9.00
2018-12-19T08:47:20.420Z,9.10
2018-12-19T08:49:48.977Z,9.10
2018-12-19T08:52:17.669Z,9.10
2018-12-19T08:54:46.325Z,9.10
2018-12-19T08:57:15.360Z,9.10
2018-12-19T08:59:44.168Z,9.20
2018-12-19T09:02:12.825Z,9.30
2018-12-19T09:04:41.654Z,9.30
2018-12-19T09:07:10.423Z,9.30
2018-12-19T09:09:39.443Z,9.40
2018-12-19T09:12:07.998Z,9.50
2018-12-19T09:14:36.698Z,9.50
2018-12-19T09:17:05.921Z,9.60
2018-12-19T09:19:34.960Z,9.60
2018-12-19T09:22:04.176Z,9.70
2018-12-19T09:24:33.100Z,9.70
2018-12-19T09:27:01.732Z,9.80
2018-12-19T09:29:30.372Z,9.70
2018-12-19T09:31:59.003Z,9.80
2018-12-19T09:34:27.835Z,9.80
2018-12-19T09:36:56.471Z,9.80
2018-12-19T09:39:25.107Z,9.90
2018-12-19T09:41:53.937Z,10.00
2018-12-19T09:44:22.967Z,10.00
2018-12-19T09:46:51.861Z,10.00
2018-12-19T09:49:20.515Z,10.10
2018-12-19T09:51:49.140Z,10.10
2018-12-19T09:54:17.901Z,10.20
2018-12-19T09:56:46.538Z,10.30
2018-12-19T09:59:15.129Z,10.30
2018-12-19T10:01:43.678Z,10.50
2018-12-19T10:04:12.419Z,10.60
2018-12-19T10:06:41.080Z,10.50
2018-12-19T10:09:14.753Z,10.40
2018-12-19T10:11:40.685Z,10.40
2018-12-19T10:14:09.535Z,10.70
2018-12-19T10:16:38.255Z,10.80
2018-12-19T10:19:07.521Z,11.20
2018-12-19T10:21:36.169Z,11.30
2018-12-19T10:24:04.782Z,11.60
2018-12-19T10:26:33.473Z,12.20
2018-12-19T10:29:02.141Z,12.70
2018-12-19T10:31:30.774Z,12.80
2018-12-19T10:33:59.325Z,13.20
2018-12-19T10:36:33.549Z,13.20
2018-12-19T10:39:02.113Z,13.80
2018-12-19T10:41:30.929Z,14.40
2018-12-19T10:43:59.597Z,14.30
2018-12-19T10:46:28.458Z,14.30
2018-12-19T10:48:57.080Z,14.50
2018-12-19T10:51:25.755Z,14.40
2018-12-19T10:53:54.389Z,14.20
2018-12-19T10:56:22.959Z,14.80
2018-12-19T10:58:51.627Z,15.20
2018-12-19T11:01:20.296Z,15.40
2018-12-19T11:03:49.327Z,14.30
2018-12-19T11:06:17.881Z,14.30
2018-12-19T11:08:46.596Z,14.40
2018-12-19T11:11:15.429Z,13.90
2018-12-19T11:13:43.942Z,13.50
2018-12-19T11:16:12.705Z,13.50
2018-12-19T11:18:41.500Z,13.30
2018-12-19T11:21:10.259Z,13.80
2018-12-19T11:23:38.804Z,13.80
2018-12-19T11:26:07.440Z,13.30
2018-12-19T11:28:36.072Z,13.10
2018-12-19T11:31:04.777Z,13.20
2018-12-19T11:33:33.543Z,13.10
2018-12-19T11:36:02.373Z,13.20
2018-12-19T11:38:31.127Z,13.50
2018-12-19T11:40:59.839Z,13.40
2018-12-19T11:43:28.680Z,13.20
2018-12-19T11:45:57.229Z,13.20
2018-12-19T11:48:25.907Z,13.10
2018-12-19T11:50:54.770Z,13.40
2018-12-19T11:53:23.334Z,13.70
2018-12-19T11:55:52.045Z,14.20
2018-12-19T11:58:20.567Z,13.90
2018-12-19T12:00:49.512Z,13.60
2018-12-19T12:03:18.155Z,13.50
2018-12-19T12:05:46.784Z,13.70
2018-12-19T12:08:15.393Z,13.60
2018-12-19T12:10:44.056Z,13.70
2018-12-19T12:13:12.850Z,13.90
2018-12-19T12:15:41.526Z,14.00
2018-12-19T12:18:10.105Z,14.30
2018-12-19T12:20:38.989Z,14.30
2018-12-19T12:23:07.833Z,14.30
2018-12-19T12:25:36.521Z,14.20
2018-12-19T12:28:05.025Z,14.30
2018-12-19T12:30:33.730Z,14.40
2018-12-19T12:33:03.347Z,14.40
2018-12-19T12:35:32.107Z,14.40
2018-12-19T12:38:00.746Z,15.10
2018-12-19T12:40:29.418Z,15.20
2018-12-19T12:42:58.085Z,15.40
2018-12-19T12:45:26.853Z,15.30
2018-12-19T12:47:55.751Z,15.30
2018-12-19T12:50:24.387Z,15.20
2018-12-19T12:52:53.021Z,15.20
2018-12-19T12:55:21.865Z,15.40
2018-12-19T12:57:50.797Z,15.40
2018-12-19T13:00:19.478Z,15.30
2018-12-19T13:02:48.153Z,15.60
2018-12-19T13:05:16.982Z,15.60
2018-12-19T13:07:45.814Z,15.20
2018-12-19T13:10:14.647Z,15.10
2018-12-19T13:12:43.189Z,15.10
2018-12-19T13:15:14.007Z,15.20
2018-12-19T13:17:43.177Z,15.50
2018-12-19T13:20:11.743Z,15.50
2018-12-19T13:22:40.337Z,15.00
2018-12-19T13:25:09.212Z,14.70
2018-12-19T13:27:37.971Z,14.60
2018-12-19T13:30:08.489Z,14.90
2018-12-19T13:32:37.280Z,15.20
2018-12-19T13:35:06.047Z,15.50
2018-12-19T13:37:34.748Z,15.60
2018-12-19T13:40:03.630Z,15.60
2018-12-19T13:42:32.377Z,15.50
2018-12-19T13:45:01.049Z,15.60
2018-12-19T13:47:29.680Z,15.70
2018-12-19T13:49:58.476Z,16.00
2018-12-19T13:52:27.154Z,15.50
2018-12-19T13:54:55.787Z,15.50
2018-12-19T13:57:24.420Z,15.50
2018-12-19T13:59:53.348Z,15.20
2018-12-19T14:02:22.011Z,15.40
2018-12-19T14:04:50.980Z,15.50
2018-12-19T14:07:19.750Z,15.30
2018-12-19T14:09:48.645Z,15.00
2018-12-19T14:12:17.331Z,14.60
2018-12-19T14:14:45.926Z,14.70
2018-12-19T14:17:14.648Z,15.00
2018-12-19T14:19:43.233Z,15.40
2018-12-19T14:22:11.825Z,15.50
2018-12-19T14:24:41.982Z,15.40
2018-12-19T14:27:10.992Z,15.50
2018-12-19T14:29:39.629Z,15.00
2018-12-19T14:32:08.198Z,14.80
2018-12-19T14:34:36.903Z,14.70
2018-12-19T14:37:05.455Z,14.80
2018-12-19T14:39:34.170Z,14.70
2018-12-19T14:42:03.003Z,14.70
2018-12-19T14:44:31.557Z,14.60
2018-12-19T14:47:00.274Z,14.60
2018-12-19T14:49:28.909Z,14.50
2018-12-19T14:51:57.544Z,14.40
2018-12-19T14:54:26.179Z,14.30
2018-12-19T14:56:54.813Z,14.30
2018-12-19T14:59:23.361Z,14.10
2018-12-19T15:01:52.084Z,14.00
2018-12-19T15:04:20.917Z,13.90
2018-12-19T15:06:49.552Z,13.90
2018-12-19T15:09:18.187Z,13.90
2018-12-19T15:11:46.747Z,13.80
2018-12-19T15:14:15.390Z,13.90
2018-12-19T15:16:44.092Z,13.80
2018-12-19T15:19:12.651Z,13.80
2018-12-19T15:21:41.363Z,13.80
2018-12-19T15:24:10.112Z,13.70
2018-12-19T15:26:38.801Z,13.60
2018-12-19T15:29:07.467Z,13.50
2018-12-19T15:31:36.173Z,13.40
2018-12-19T15:34:04.933Z,13.30
2018-12-19T15:36:34.095Z,13.20
2018-12-19T15:39:03.057Z,13.10
2018-12-19T15:41:31.805Z,13.10
2018-12-19T15:44:00.460Z,12.90
2018-12-19T15:46:29.095Z,12.90
2018-12-19T15:48:57.659Z,12.90
2018-12-19T15:51:26.274Z,12.90
2018-12-19T15:53:54.999Z,12.90
2018-12-19T15:56:23.559Z,12.80
2018-12-19T15:58:52.269Z,12.80
2018-12-19T16:01:20.907Z,12.80
2018-12-19T16:03:49.463Z,12.80
2018-12-19T16:06:18.054Z,12.70
2018-12-19T16:08:46.615Z,12.30
2018-12-19T16:11:15.448Z,12.00
2018-12-19T16:13:44.480Z,11.80
2018-12-19T16:16:13.301Z,11.60
2018-12-19T16:18:41.810Z,11.50
2018-12-19T16:21:10.457Z,11.40
2018-12-19T16:23:39.174Z,11.30
2018-12-19T16:26:07.850Z,11.30
2018-12-19T16:28:36.409Z,11.30
2018-12-19T16:31:05.119Z,11.30
2018-12-19T16:33:33.755Z,11.30
2018-12-19T16:36:02.395Z,11.30
2018-12-19T16:38:31.026Z,11.30
2018-12-19T16:41:00.250Z,11.30
2018-12-19T16:43:28.989Z,11.30
2018-12-19T16:45:57.719Z,11.30
2018-12-19T16:48:26.353Z,11.30
2018-12-19T16:50:54.919Z,11.30
2018-12-19T16:53:23.533Z,11.20
2018-12-19T16:55:51.975Z,11.20
2018-12-19T16:58:20.698Z,11.10
2018-12-19T17:00:49.335Z,11.10
2018-12-19T17:03:17.968Z,11.00
2018-12-19T17:05:46.522Z,11.00
2018-12-19T17:08:15.043Z,10.90
2018-12-19T17:10:43.603Z,10.90
2018-12-19T17:13:12.314Z,10.80
2018-12-19T17:15:40.949Z,10.80
2018-12-19T17:18:09.512Z,10.70
2018-12-19T17:20:38.100Z,10.70
2018-12-19T17:23:06.858Z,10.60
2018-12-19T17:25:35.660Z,10.60
2018-12-19T17:28:04.399Z,10.50
2018-12-19T17:30:33.548Z,10.50
2018-12-19T17:33:02.114Z,10.50
2018-12-19T17:35:30.781Z,10.40
2018-12-19T17:37:59.650Z,10.40
2018-12-19T17:40:28.215Z,10.40
2018-12-19T17:42:59.538Z,10.40
2018-12-19T17:45:27.720Z,10.40
2018-12-19T17:47:56.463Z,10.30
2018-12-19T17:50:25.187Z,10.30
2018-12-19T17:52:53.754Z,10.30
2018-12-19T17:55:22.368Z,10.20
2018-12-19T17:57:51.613Z,10.20
2018-12-19T18:00:20.319Z,10.20
2018-12-19T18:02:48.957Z,10.10
2018-12-19T18:05:17.713Z,10.10
2018-12-19T18:07:46.376Z,10.00
2018-12-19T18:10:15.059Z,10.00
2018-12-19T18:12:43.665Z,10.10
2018-12-19T18:15:12.347Z,10.00
2018-12-19T18:17:41.173Z,9.90
2018-12-19T18:20:09.993Z,9.90
2018-12-19T18:22:38.823Z,9.90
2018-12-19T18:25:07.774Z,9.90
2018-12-19T18:27:36.489Z,9.70
2018-12-19T18:30:07.536Z,9.80
2018-12-19T18:32:35.951Z,9.70
2018-12-19T18:35:06.000Z,9.70
2018-12-19T18:37:34.761Z,9.70
2018-12-19T18:40:03.858Z,9.60
2018-12-19T18:42:32.544Z,9.70
2018-12-19T18:45:01.271Z,9.70
2018-12-19T18:47:29.896Z,9.70
2018-12-19T18:49:58.728Z,9.70
2018-12-19T18:52:27.364Z,9.60
2018-12-19T18:54:56.156Z,9.40
2018-12-19T18:57:24.949Z,9.40
2018-12-19T18:59:53.586Z,9.40
2018-12-19T19:02:22.495Z,9.30
2018-12-19T19:04:51.050Z,9.30
2018-12-19T19:07:19.765Z,9.40
2018-12-19T19:09:49.078Z,9.30
2018-12-19T19:12:18.020Z,9.40
2018-12-19T19:14:46.658Z,9.40
2018-12-19T19:17:15.290Z,9.30
2018-12-19T19:19:43.905Z,9.30
2018-12-19T19:22:12.673Z,9.10
2018-12-19T19:24:41.393Z,9.00
2018-12-19T19:27:09.958Z,8.90
2018-12-19T19:29:38.470Z,9.00
2018-12-19T19:32:07.299Z,8.90
2018-12-19T19:34:35.934Z,8.80
2018-12-19T19:37:04.653Z,8.70
2018-12-19T19:39:33.369Z,8.50
2018-12-19T19:42:02.041Z,8.70
2018-12-19T19:44:30.870Z,8.80
2018-12-19T19:46:59.701Z,8.80
2018-12-19T19:49:28.336Z,9.00
2018-12-19T19:51:56.973Z,9.00
2018-12-19T19:54:25.807Z,8.90
2018-12-19T19:56:54.418Z,8.80
2018-12-19T19:59:22.984Z,8.80
2018-12-19T20:01:51.711Z,8.80
2018-12-19T20:04:20.542Z,8.70
2018-12-19T20:06:49.087Z,8.70
2018-12-19T20:09:17.616Z,8.60
2018-12-19T20:11:46.251Z,8.60
2018-12-19T20:14:14.862Z,8.70
2018-12-19T20:16:49.153Z,8.60
2018-12-19T20:19:17.623Z,8.60
2018-12-19T20:21:46.296Z,8.50
2018-12-19T20:24:14.934Z,8.40
2018-12-19T20:26:43.698Z,8.40
2018-12-19T20:29:12.400Z,8.40
2018-12-19T20:31:41.108Z,8.50
2018-12-19T20:34:09.774Z,8.40
2018-12-19T20:36:38.502Z,8.40
2018-12-19T20:39:08.494Z,8.50
2018-12-19T20:41:37.253Z,8.20
2018-12-19T20:44:05.918Z,8.10
2018-12-19T20:46:34.615Z,8.00
2018-12-19T20:49:03.450Z,7.80
2018-12-19T20:51:31.996Z,7.80
2018-12-19T20:54:00.736Z,7.80
2018-12-19T20:56:29.354Z,7.70
2018-12-19T20:58:58.200Z,7.60
2018-12-19T21:01:26.820Z,7.50
2018-12-19T21:03:55.707Z,7.40
2018-12-19T21:06:24.450Z,7.30
2018-12-19T21:08:53.418Z,7.30
2018-12-19T21:11:21.951Z,7.30
2018-12-19T21:13:50.587Z,7.20
2018-12-19T21:16:21.389Z,7.20
2018-12-19T21:18:52.183Z,7.10
2018-12-19T21:21:20.819Z,7.20
2018-12-19T21:23:49.645Z,7.20
2018-12-19T21:26:18.213Z,7.20
2018-12-19T21:28:46.882Z,7.10
2018-12-19T21:31:15.623Z,7.10
2018-12-19T21:33:44.420Z,7.10
2018-12-19T21:36:13.611Z,7.20
2018-12-19T21:38:42.509Z,7.20
2018-12-19T21:41:11.080Z,7.10
2018-12-19T21:43:39.857Z,7.00
2018-12-19T21:46:08.539Z,7.00
2018-12-19T21:48:37.184Z,7.20
2018-12-19T21:51:05.819Z,7.20
2018-12-19T21:53:34.650Z,7.30
2018-12-19T21:56:03.246Z,7.30
2018-12-19T21:58:31.969Z,7.50
2018-12-19T22:01:00.722Z,7.30
2018-12-19T22:03:30.621Z,7.40
2018-12-19T22:05:59.067Z,7.30
2018-12-19T22:08:27.845Z,7.20
2018-12-19T22:10:56.477Z,7.30
2018-12-19T22:13:25.289Z,7.00
2018-12-19T22:15:54.141Z,6.90
2018-12-19T22:18:28.991Z,6.90
2018-12-19T22:20:57.981Z,6.90
2018-12-19T22:23:27.807Z,6.80
2018-12-19T22:25:56.451Z,7.10
2018-12-19T22:28:25.392Z,7.10
2018-12-19T22:30:54.404Z,7.30
2018-12-19T22:33:23.790Z,7.30
2018-12-19T22:35:52.655Z,7.20
2018-12-19T22:38:21.291Z,7.20
2018-12-19T22:40:49.928Z,7.30
2018-12-19T22:43:18.671Z,7.30
2018-12-19T22:45:47.215Z,6.90
2018-12-19T22:48:16.369Z,6.80
2018-12-19T22:50:45.256Z,6.80
2018-12-19T22:53:14.026Z,6.70
2018-12-19T22:55:42.912Z,6.50
2018-12-19T22:58:11.759Z,6.60
2018-12-19T23:00:46.792Z,6.50
2018-12-19T23:03:15.452Z,6.40
2018-12-19T23:05:49.576Z,6.40
2018-12-19T23:08:19.976Z,6.20
2018-12-19T23:10:49.025Z,6.20
2018-12-19T23:13:17.738Z,6.10
2018-12-19T23:15:46.276Z,6.10
2018-12-19T23:18:20.625Z,6.10
2018-12-19T23:20:49.885Z,6.00
2018-12-19T23:23:18.590Z,6.00
2018-12-19T23:25:47.580Z,6.10
2018-12-19T23:28:16.804Z,6.20
2018-12-19T23:30:45.474Z,6.50
2018-12-19T23:33:14.453Z,6.60
2018-12-19T23:35:43.198Z,6.60
2018-12-19T23:38:11.915Z,6.70
2018-12-19T23:40:42.114Z,6.60
2018-12-19T23:43:11.091Z,6.40
2018-12-19T23:45:39.805Z,6.30
2018-12-19T23:48:08.343Z,6.50
2018-12-19T23:50:37.273Z,6.60
2018-12-19T23:53:06.227Z,6.70
2018-12-19T23:55:35.119Z,6.80
2018-12-19T23:58:03.992Z,6.80
